Chitina, AK

1:36 AM AKDT on September 15, 2014 (GMT -0800)
RAWS MAY CREEK AK US | Change Station
CLOSE
Current Station
Personal Weather Station
Location: Chitina, AK
Elevation: 1579 ft
Nearby Weather Stations

Elev 1579 ft 61.35 °N, 142.71 °W | Updated 40 minutes ago

Scattered Clouds
Scattered Clouds
48 °F
Feels Like 48 °F
N
0
Wind Variable Wind from North
Gusts 6.0 mph

Today
High -- | Low -- °F
--% Chance of Precip.
Yesterday
High -- | Low -- °F
Precip. -- in
6:58 AM 7:53 PM
Waning Gibbous, 57% visible
Pressure 29.68 in
Visibility 10.0 miles
Clouds Scattered Clouds 12000 ft
Windchill 48 °F
Dew Point 47 °F
Humidity 98%
Rainfall 0.10 in
Snow Depth Not available.
UV 0 out of 12
Pollen Not available.
Air Quality Not available.
Flu Activity Not available.
METAR PAGK 150853Z AUTO 14008KT 10SM SCT120 13/07 A2969 RMK AO2 SLP050 T01280067 402000106 55002 TSNO

More Conditions Fewer Conditions

Pressure 29.68 in
Visibility 10.0 miles
Clouds Scattered Clouds 12000 ft
Windchill 48 °F
Dew Point 47 °F
Humidity 98%
Rainfall 0.10 in
Snow Depth Not available.
UV 0 out of 12
Pollen Not available.
Air Quality Not available.
Flu Activity Not available.
METAR PAGK 150853Z AUTO 14008KT 10SM SCT120 13/07 A2969 RMK AO2 SLP050 T01280067 402000106 55002 TSNO

More Conditions Fewer Conditions

10-Day Weather Forecast

Almanac

Astronomy

Sep. 15, 2014 Rise Set
Actual Time 6:58 AM AKDT 7:53 PM AKDT
Civil Twilight 6:14 AM AKDT 8:37 PM AKDT
Nautical Twilight 5:19 AM AKDT 9:32 PM AKDT
Astronomical Twilight 4:15 AM AKDT 10:34 PM AKDT
Moon 11:01 PM AKDT 3:50 PM AKDT
Length of Visible Light 14h 23m
Length of Day
12h 55m
Tomorrow will be 5m 44s shorter.
Waning Gibbous, 57% of the Moon is Illuminated
Today
Waning Gibbous
Sep 15
Last Quarter
Sep 24
New
Oct 1
First Quarter
Oct 8
Full

Today's Extremes

State Highs State Lows

Community

WunderPhotos

Upload Photos

1,753,426 photos uploaded!

Nearby

Snow Depth

Station Depth Elevation
Moraine 0 in 2100 ft
Nuka Glacier 164 in 1250 ft
Point Mackenzie 1 in 200 ft
Mcneil Canyon 1 in 1320 ft
Upper Chena 1 in 2850 ft

Earthquake Activity

City Distance Mag. Time & Date
No recent earthquake activity has been reported nearby.
Minimum magnitude displayed is 2.5.

Coastal Water Temperatures

Place Temperature
No Stations Reporting

Nearby Weather Stations